Time;durP1;ratioP1;P1;durP2;ratioP2;P2;SDS_P1;SDS_P2;PMS_P1;PMS_P2;Temp;Humidity;BMP_temperature;BMP_pressure;BME280_temperature;BME280_humidity;BME280_pressure;Samples;Min_cycle;Max_cycle;Signal;HPM_P1;HPM_P2
2021/04/05 00:01:01;;;;;;;6.13;4.68;;;4.50;73.70;;;;;;6264529;28;20041;-78
2021/04/05 00:04:03;;;;;;;12.05;5.22;;;4.50;73.60;;;;;;6252308;28;20057;-78
2021/04/05 00:07:04;;;;;;;6.25;4.68;;;4.50;73.50;;;;;;6273250;28;20072;-78
2021/04/05 00:10:08;;;;;;;12.73;6.13;;;4.50;73.40;;;;;;6274802;28;20049;-78
2021/04/05 00:13:13;;;;;;;10.45;5.55;;;4.50;73.40;;;;;;6283068;28;20052;-79
2021/04/05 00:16:17;;;;;;;10.95;5.32;;;4.60;73.10;;;;;;6269788;28;20475;-78
2021/04/05 00:19:19;;;;;;;9.85;6.03;;;4.70;72.80;;;;;;6258993;28;20045;-78
2021/04/05 00:22:20;;;;;;;7.25;5.00;;;4.80;72.50;;;;;;6264775;28;20080;-78
2021/04/05 00:25:21;;;;;;;6.97;5.32;;;4.90;72.20;;;;;;6273809;28;20079;-78
2021/04/05 00:28:23;;;;;;;6.35;5.20;;;5.00;71.90;;;;;;6266990;28;20539;-79
2021/04/05 00:31:25;;;;;;;8.45;6.22;;;5.20;71.70;;;;;;6273367;28;20567;-78
2021/04/05 00:34:26;;;;;;;9.73;6.00;;;5.20;71.10;;;;;;6267303;28;20127;-78
2021/04/05 00:37:27;;;;;;;15.30;4.93;;;5.40;70.80;;;;;;6260996;28;20064;-78
2021/04/05 00:40:35;;;;;;;6.85;4.30;;;5.40;70.50;;;;;;6281692;28;20052;-78
2021/04/05 00:43:37;;;;;;;11.88;5.15;;;5.40;71.00;;;;;;6277493;28;20106;-77
2021/04/05 00:46:39;;;;;;;15.45;8.48;;;5.40;70.20;;;;;;6274761;28;20077;-77
2021/04/05 00:49:41;;;;;;;7.10;5.53;;;5.50;70.50;;;;;;6270907;28;20052;-78
2021/04/05 00:52:42;;;;;;;9.82;7.13;;;5.50;69.70;;;;;;6260204;28;20046;-78
2021/04/05 00:55:46;;;;;;;9.43;5.05;;;5.60;69.40;;;;;;6256627;28;20488;-78
2021/04/05 00:58:48;;;;;;;7.10;4.72;;;5.60;69.10;;;;;;6261045;28;20041;-78
2021/04/05 01:01:50;;;;;;;6.45;5.05;;;5.70;69.00;;;;;;6273145;28;20056;-78
2021/04/05 01:04:52;;;;;;;9.80;4.93;;;5.80;68.80;;;;;;6270040;28;20207;-78
2021/04/05 01:07:53;;;;;;;6.20;5.35;;;5.80;68.60;;;;;;6272153;28;20518;-78
2021/04/05 01:10:55;;;;;;;10.02;4.60;;;5.80;68.60;;;;;;6271953;28;20045;-78
2021/04/05 01:13:57;;;;;;;8.50;6.70;;;5.80;68.60;;;;;;6267890;28;20061;-78
2021/04/05 01:16:59;;;;;;;7.28;5.50;;;5.80;68.70;;;;;;6265533;28;20073;-78
2021/04/05 01:20:01;;;;;;;9.45;4.80;;;5.80;68.90;;;;;;6273950;28;20087;-78
2021/04/05 01:23:04;;;;;;;11.38;5.43;;;5.80;69.00;;;;;;6259740;28;20050;-78
2021/04/05 01:26:06;;;;;;;8.80;5.85;;;5.80;68.90;;;;;;6279382;28;20105;-78
2021/04/05 01:29:07;;;;;;;13.13;6.22;;;5.80;69.00;;;;;;6273156;28;20246;-78
2021/04/05 01:32:09;;;;;;;5.45;4.72;;;5.80;69.10;;;;;;6257657;28;20041;-78
2021/04/05 01:35:11;;;;;;;11.35;5.68;;;5.80;69.10;;;;;;6275995;28;20084;-78
2021/04/05 01:38:15;;;;;;;10.00;5.95;;;5.80;69.20;;;;;;6277984;28;20052;-78
2021/04/05 01:41:18;;;;;;;10.65;5.65;;;5.80;69.10;;;;;;6271910;28;20135;-77
2021/04/05 01:44:20;;;;;;;10.10;5.18;;;5.80;69.10;;;;;;6254359;28;20124;-78
2021/04/05 01:47:21;;;;;;;7.93;6.07;;;5.70;69.20;;;;;;6270133;28;20467;-78
2021/04/05 01:50:22;;;;;;;16.27;5.97;;;5.70;69.30;;;;;;6265046;28;20076;-78
2021/04/05 01:53:25;;;;;;;11.40;7.93;;;5.70;69.60;;;;;;6264341;28;20080;-78
2021/04/05 01:56:26;;;;;;;16.80;6.55;;;5.70;69.60;;;;;;6277428;28;20059;-78
2021/04/05 01:59:27;;;;;;;13.02;6.07;;;5.70;69.90;;;;;;6280920;28;20032;-78
2021/04/05 02:02:29;;;;;;;10.38;5.88;;;5.70;69.90;;;;;;6289227;28;20075;-78
2021/04/05 02:05:31;;;;;;;12.85;6.22;;;5.70;69.90;;;;;;6298354;28;20037;-78
2021/04/05 02:08:33;;;;;;;8.20;5.45;;;5.70;70.00;;;;;;6284922;28;20050;-77
2021/04/05 02:11:36;;;;;;;10.85;4.95;;;5.70;70.10;;;;;;6298843;28;20033;-78
2021/04/05 02:14:39;;;;;;;20.23;8.52;;;5.70;70.10;;;;;;6293087;28;20053;-77
2021/04/05 02:17:40;;;;;;;9.68;5.75;;;5.70;70.10;;;;;;6289819;28;20040;-78
2021/04/05 02:20:43;;;;;;;8.63;6.32;;;5.60;70.10;;;;;;6286094;28;20045;-77
2021/04/05 02:23:47;;;;;;;8.98;6.25;;;5.60;70.10;;;;;;6270616;28;20056;-77
2021/04/05 02:26:48;;;;;;;10.25;6.25;;;5.60;70.10;;;;;;6255999;28;20578;-77
2021/04/05 02:29:52;;;;;;;9.77;6.00;;;5.60;70.10;;;;;;6256890;28;20069;-78
2021/04/05 02:32:55;;;;;;;6.85;5.95;;;5.60;70.10;;;;;;6254084;28;20124;-77
2021/04/05 02:35:57;;;;;;;10.25;5.68;;;5.60;70.00;;;;;;6260391;28;20068;-78
2021/04/05 02:39:01;;;;;;;6.90;5.32;;;5.70;70.00;;;;;;6264677;28;20106;-78
2021/04/05 02:42:03;;;;;;;8.60;5.50;;;5.60;69.90;;;;;;6260841;28;20073;-78
2021/04/05 02:45:06;;;;;;;11.23;6.53;;;5.70;70.00;;;;;;6261364;28;20075;-79
2021/04/05 02:48:10;;;;;;;9.50;5.55;;;5.70;70.00;;;;;;6261561;28;20045;-78
2021/04/05 02:51:12;;;;;;;9.15;5.05;;;5.80;70.00;;;;;;6269916;28;20050;-78
2021/04/05 02:54:18;;;;;;;8.40;6.35;;;5.80;70.00;;;;;;6261538;28;20053;-77
2021/04/05 02:57:19;;;;;;;10.40;5.55;;;5.80;69.80;;;;;;6246438;28;20426;-78
2021/04/05 03:00:22;;;;;;;11.02;8.82;;;5.80;69.70;;;;;;6262648;28;20041;-78
2021/04/05 03:03:23;;;;;;;10.80;6.15;;;5.90;69.70;;;;;;6262162;28;20084;-78
2021/04/05 03:06:27;;;;;;;8.57;6.15;;;5.80;69.70;;;;;;6253770;28;20079;-78
2021/04/05 03:09:29;;;;;;;12.15;6.90;;;5.90;69.90;;;;;;6263774;28;20072;-78
2021/04/05 03:12:31;;;;;;;12.73;6.63;;;5.90;70.00;;;;;;6270751;28;20079;-78
2021/04/05 03:15:32;;;;;;;11.35;6.25;;;5.90;70.00;;;;;;6269556;28;20183;-79
2021/04/05 03:18:35;;;;;;;10.75;5.68;;;5.90;70.00;;;;;;6257789;28;20087;-78
2021/04/05 03:21:36;;;;;;;11.40;5.72;;;5.90;69.90;;;;;;6260782;28;20048;-78
2021/04/05 03:24:39;;;;;;;9.25;5.70;;;6.00;69.90;;;;;;6258029;28;20207;-77
2021/04/05 03:27:40;;;;;;;15.00;5.47;;;6.00;69.60;;;;;;6259232;28;20133;-78
2021/04/05 03:30:45;;;;;;;15.95;6.43;;;6.00;69.40;;;;;;6271486;28;20045;-77
2021/04/05 03:33:53;;;;;;;6.45;5.45;;;6.10;69.40;;;;;;6270569;28;20128;-79
2021/04/05 03:36:56;;;;;;;6.90;5.20;;;6.10;69.10;;;;;;6261149;28;20484;-78
2021/04/05 03:39:58;;;;;;;7.38;4.90;;;6.10;69.10;;;;;;6267125;28;20045;-78
2021/04/05 03:43:07;;;;;;;7.90;5.72;;;6.10;69.20;;;;;;6264691;28;20128;-79
2021/04/05 03:46:17;;;;;;;7.18;5.53;;;6.00;69.30;;;;;;6269821;28;20077;-79
2021/04/05 03:49:25;;;;;;;7.72;5.10;;;6.00;69.80;;;;;;6269214;28;20123;-78
2021/04/05 03:52:31;;;;;;;11.52;6.47;;;5.90;70.10;;;;;;6273849;28;20073;-78
2021/04/05 03:55:34;;;;;;;8.65;6.05;;;5.90;70.60;;;;;;6279238;28;20131;-78
2021/04/05 03:58:36;;;;;;;7.15;5.20;;;5.80;70.90;;;;;;6264523;28;20049;-78
2021/04/05 04:01:45;;;;;;;9.57;6.88;;;5.80;71.10;;;;;;6270790;28;20131;-78
2021/04/05 04:04:55;;;;;;;4.97;4.47;;;5.80;71.30;;;;;;6259977;28;20098;-77
2021/04/05 04:08:06;;;;;;;14.25;5.68;;;5.80;71.20;;;;;;6251349;28;20046;-78
2021/04/05 04:11:09;;;;;;;8.10;4.93;;;5.80;71.20;;;;;;6268253;28;20100;-78
2021/04/05 04:14:11;;;;;;;11.05;5.32;;;5.80;71.10;;;;;;6255293;28;20045;-77
2021/04/05 04:17:14;;;;;;;9.55;6.00;;;5.80;70.90;;;;;;6271498;28;20124;-78
2021/04/05 04:20:18;;;;;;;10.13;7.50;;;5.80;71.20;;;;;;6266134;28;20473;-77
2021/04/05 04:23:19;;;;;;;6.85;5.20;;;5.80;70.60;;;;;;6262909;28;20526;-78
2021/04/05 04:26:22;;;;;;;9.45;4.70;;;5.80;70.40;;;;;;6260637;28;20075;-78
2021/04/05 04:29:23;;;;;;;9.68;5.80;;;5.80;70.40;;;;;;6260300;28;20073;-78
2021/04/05 04:32:26;;;;;;;8.55;4.88;;;5.90;70.30;;;;;;6267034;28;20137;-78
2021/04/05 04:35:28;;;;;;;9.98;5.70;;;5.90;70.30;;;;;;6262745;28;20128;-78
2021/04/05 04:38:29;;;;;;;9.70;5.70;;;5.90;71.00;;;;;;6267104;28;20053;-78
2021/04/05 04:41:32;;;;;;;10.73;5.90;;;5.90;70.80;;;;;;6260330;28;20084;-77
2021/04/05 04:44:33;;;;;;;17.55;7.88;;;5.80;71.20;;;;;;6268790;28;20132;-77
2021/04/05 04:47:35;;;;;;;12.95;5.93;;;5.80;71.40;;;;;;6277201;28;20045;-78
2021/04/05 04:50:36;;;;;;;10.75;5.60;;;5.80;71.60;;;;;;6262406;28;20076;-78
2021/04/05 04:53:38;;;;;;;11.23;6.20;;;5.90;71.80;;;;;;6269018;28;20098;-77
2021/04/05 04:56:40;;;;;;;5.43;4.93;;;5.90;72.00;;;;;;6271544;28;20106;-78
2021/04/05 04:59:42;;;;;;;11.05;6.38;;;5.90;72.00;;;;;;6268676;28;20128;-78
2021/04/05 05:02:44;;;;;;;8.20;6.35;;;5.90;72.10;;;;;;6264295;28;20073;-78
2021/04/05 05:05:47;;;;;;;14.10;8.18;;;5.90;72.10;;;;;;6263704;28;20105;-77
2021/04/05 05:08:48;;;;;;;7.32;6.07;;;5.90;71.90;;;;;;6272815;28;20052;-78
2021/04/05 05:11:51;;;;;;;8.70;6.63;;;6.00;71.70;;;;;;6275428;28;20045;-77
2021/04/05 05:14:53;;;;;;;9.70;6.43;;;6.00;71.50;;;;;;6267239;28;20077;-78
2021/04/05 05:17:54;;;;;;;12.90;6.18;;;6.00;71.30;;;;;;6264982;28;20045;-78
2021/04/05 05:20:56;;;;;;;10.95;5.93;;;6.10;71.00;;;;;;6267442;28;20112;-78
2021/04/05 05:24:02;;;;;;;8.38;5.65;;;6.20;70.40;;;;;;6267751;28;20044;-77
2021/04/05 05:27:08;;;;;;;8.52;4.82;;;6.20;70.00;;;;;;6258095;28;20049;-77
2021/04/05 05:30:20;;;;;;;9.85;6.13;;;6.30;69.60;;;;;;6258475;28;20149;-78
2021/04/05 05:33:21;;;;;;;9.88;6.32;;;6.40;69.00;;;;;;6260092;28;20396;-78
2021/04/05 05:36:23;;;;;;;10.27;5.60;;;6.50;68.50;;;;;;6268284;28;20045;-78
2021/04/05 05:39:25;;;;;;;7.13;5.13;;;6.50;68.20;;;;;;6262066;28;20396;-78
2021/04/05 05:42:45;;;;;;;7.72;4.90;;;6.60;68.00;;;;;;6261872;28;20100;-78
2021/04/05 05:46:04;;;;;;;9.90;5.75;;;6.60;67.70;;;;;;6268356;28;20053;-78
2021/04/05 05:49:15;;;;;;;8.85;7.32;;;6.70;67.50;;;;;;6260826;28;20128;-78
2021/04/05 05:52:34;;;;;;;11.73;5.65;;;6.80;67.30;;;;;;6251669;28;20071;-78
2021/04/05 05:56:03;;;;;;;9.88;6.07;;;6.80;67.20;;;;;;6264940;28;20168;-78
2021/04/05 05:59:14;;;;;;;7.65;5.28;;;7.00;67.90;;;;;;6267536;28;20072;-78
2021/04/05 06:02:29;;;;;;;12.77;5.72;;;7.00;67.10;;;;;;6250892;28;20171;-78
2021/04/05 06:05:43;;;;;;;17.05;12.38;;;7.10;66.90;;;;;;6244661;28;20077;-78
2021/04/05 06:08:53;;;;;;;24.40;18.42;;;7.20;66.30;;;;;;6261251;28;20043;-77
2021/04/05 06:11:59;;;;;;;23.10;19.13;;;7.30;65.70;;;;;;6266507;28;20115;-78
2021/04/05 06:15:13;;;;;;;10.38;7.28;;;7.50;64.40;;;;;;6262601;28;20045;-78
2021/04/05 06:18:25;;;;;;;15.88;7.78;;;7.50;64.60;;;;;;6260413;28;20121;-78
2021/04/05 06:21:35;;;;;;;18.50;6.57;;;7.60;64.30;;;;;;6256384;28;20081;-78
2021/04/05 06:24:50;;;;;;;11.82;8.25;;;7.70;64.00;;;;;;6260887;28;20076;-78
2021/04/05 06:27:56;;;;;;;11.75;7.25;;;7.80;63.80;;;;;;6256188;28;20105;-78
2021/04/05 06:31:07;;;;;;;7.63;5.57;;;7.90;63.20;;;;;;6260868;28;20049;-78
2021/04/05 06:34:20;;;;;;;12.70;5.63;;;8.00;62.90;;;;;;6269362;28;20176;-78
2021/04/05 06:37:27;;;;;;;8.77;5.53;;;8.10;62.00;;;;;;6269453;28;20059;-78
2021/04/05 06:40:31;;;;;;;12.27;6.28;;;8.30;61.90;;;;;;6262757;28;20052;-76
2021/04/05 06:44:00;;;;;;;10.52;6.15;;;8.30;61.90;;;;;;6263659;28;20052;-77
2021/04/05 06:47:28;;;;;;;7.97;5.97;;;8.40;61.60;;;;;;6259827;28;20160;-77
2021/04/05 06:50:37;;;;;;;9.52;5.82;;;8.60;61.40;;;;;;6253110;28;20126;-77
2021/04/05 06:54:06;;;;;;;12.57;6.15;;;8.60;61.20;;;;;;6263944;28;20049;-78
2021/04/05 06:57:12;;;;;;;13.07;6.65;;;8.70;61.20;;;;;;6261467;28;20051;-78
2021/04/05 07:00:20;;;;;;;11.68;6.55;;;8.80;60.90;;;;;;6249276;28;20047;-78
2021/04/05 07:03:40;;;;;;;9.57;5.72;;;8.90;60.80;;;;;;6257555;28;20108;-78
2021/04/05 07:06:47;;;;;;;16.80;6.65;;;9.10;60.70;;;;;;6249182;28;20132;-78
2021/04/05 07:09:53;;;;;;;14.10;6.38;;;9.30;60.30;;;;;;6258128;28;20037;-78
2021/04/05 07:13:01;;;;;;;15.63;8.10;;;9.50;59.90;;;;;;6256805;28;20458;-79
2021/04/05 07:16:10;;;;;;;17.33;8.35;;;9.60;59.00;;;;;;6254295;28;20161;-79
2021/04/05 07:19:30;;;;;;;13.15;6.15;;;9.70;58.40;;;;;;6259618;28;20518;-80
2021/04/05 07:22:52;;;;;;;8.93;6.35;;;9.90;58.10;;;;;;6247511;28;20045;-79
2021/04/05 07:26:03;;;;;;;11.50;7.13;;;9.90;58.10;;;;;;6260300;28;20646;-79
2021/04/05 07:29:11;;;;;;;12.27;8.40;;;9.90;58.40;;;;;;6250886;28;20427;-79
2021/04/05 07:32:15;;;;;;;;;;;9.90;58.90;;;;;;6252832;28;20041;-79
2021/04/05 07:35:27;;;;;;;66.82;46.78;;;9.90;59.30;;;;;;6260321;28;19971;-79
2021/04/05 07:38:39;;;;;;;65.53;43.75;;;9.90;59.50;;;;;;6261091;28;20575;-79
2021/04/05 07:41:47;;;;;;;22.20;17.92;;;9.80;59.50;;;;;;6257008;28;20042;-77
2021/04/05 07:44:59;;;;;;;24.27;14.63;;;9.80;59.30;;;;;;6266792;28;20136;-79
2021/04/05 07:48:10;;;;;;;38.85;30.13;;;9.80;60.00;;;;;;6268340;28;20129;-78
2021/04/05 07:51:18;;;;;;;20.08;11.48;;;9.80;60.10;;;;;;6252780;28;20053;-79
2021/04/05 07:54:23;;;;;;;16.95;11.25;;;9.90;60.40;;;;;;6253414;28;20103;-79
2021/04/05 07:57:32;;;;;;;19.90;11.90;;;10.00;60.90;;;;;;6268541;28;20132;-80
2021/04/05 08:00:41;;;;;;;23.25;11.77;;;10.10;60.80;;;;;;6266046;28;20113;-80
2021/04/05 08:03:53;;;;;;;25.00;14.52;;;10.10;61.30;;;;;;6256508;28;20136;-79
2021/04/05 08:07:03;;;;;;;26.10;12.70;;;10.40;64.20;;;;;;6260706;28;20076;-80
2021/04/05 08:10:10;;;;;;;21.80;12.70;;;10.30;61.00;;;;;;6269152;28;20057;-80
2021/04/05 08:13:22;;;;;;;23.27;13.40;;;10.40;61.00;;;;;;6262101;28;20056;-79
2021/04/05 08:16:32;;;;;;;24.60;13.55;;;10.40;61.00;;;;;;6245792;28;20068;-78
2021/04/05 08:19:56;;;;;;;19.90;11.93;;;10.50;60.70;;;;;;6269488;28;20075;-78
2021/04/05 08:23:06;;;;;;;27.50;12.65;;;10.70;59.80;;;;;;6274513;28;20128;-79
2021/04/05 08:26:22;;;;;;;24.40;11.85;;;10.70;59.70;;;;;;6269813;28;20065;-79
2021/04/05 08:29:33;;;;;;;22.52;13.15;;;10.80;59.50;;;;;;6253431;28;20125;-79
2021/04/05 08:32:42;;;;;;;25.25;12.93;;;10.80;59.30;;;;;;6259633;28;20719;-80
2021/04/05 08:35:45;;;;;;;26.75;14.27;;;10.90;59.30;;;;;;6261675;28;20061;-78
2021/04/05 08:38:55;;;;;;;25.48;12.77;;;10.90;58.50;;;;;;6266815;28;20113;-80
2021/04/05 08:42:05;;;;;;;21.95;11.07;;;10.90;58.80;;;;;;6271947;28;20075;-79
2021/04/05 08:45:14;;;;;;;18.10;10.40;;;11.00;59.00;;;;;;6271537;28;20065;-78
2021/04/05 08:48:18;;;;;;;37.10;11.77;;;11.20;58.70;;;;;;6271509;28;20092;-79
2021/04/05 08:51:24;;;;;;;21.42;10.73;;;11.30;58.20;;;;;;6275005;28;20092;-78
2021/04/05 08:54:28;;;;;;;21.55;10.95;;;11.30;57.50;;;;;;6260616;28;20125;-79
2021/04/05 08:57:34;;;;;;;26.30;11.15;;;11.50;56.80;;;;;;6269636;28;20079;-79
2021/04/05 09:00:38;;;;;;;18.52;11.98;;;11.50;56.70;;;;;;6268027;28;20064;-79
2021/04/05 09:03:45;;;;;;;18.48;11.30;;;11.80;56.20;;;;;;6272503;28;20133;-81
2021/04/05 09:06:57;;;;;;;21.00;12.10;;;12.20;55.10;;;;;;6276244;28;20071;-80
2021/04/05 09:10:04;;;;;;;25.98;11.88;;;12.40;54.50;;;;;;6264519;28;20041;-80
2021/04/05 09:13:08;;;;;;;17.90;11.68;;;12.40;53.90;;;;;;6263211;28;20483;-80
2021/04/05 09:16:43;;;;;;;21.30;10.68;;;12.50;53.50;;;;;;6263203;28;20525;-79
2021/04/05 09:20:21;;;;;;;24.08;11.98;;;12.80;53.20;;;;;;6272051;28;20133;-79
2021/04/05 09:24:07;;;;;;;21.23;12.60;;;13.00;52.80;;;;;;6257251;28;20091;-80
2021/04/05 09:27:37;;;;;;;15.50;10.05;;;13.20;53.00;;;;;;6246782;28;20136;-80
2021/04/05 09:31:06;;;;;;;15.90;9.70;;;;;;;;;;6269718;28;20094;-78
2021/04/05 09:34:15;;;;;;;19.80;9.75;;;;;;;;;;6272964;28;20042;-80
2021/04/05 09:37:48;;;;;;;16.90;8.23;;;13.20;49.20;;;;;;6270854;28;20102;-80
2021/04/05 09:41:21;;;;;;;16.83;9.02;;;13.30;49.10;;;;;;6255241;28;20108;-81
2021/04/05 09:44:40;;;;;;;16.98;8.90;;;13.40;49.50;;;;;;6255323;28;20072;-78
2021/04/05 09:48:12;;;;;;;15.88;9.38;;;13.50;48.60;;;;;;6257257;28;20175;-80
2021/04/05 09:51:50;;;;;;;20.13;12.23;;;13.70;48.50;;;;;;6270717;28;20045;-80
2021/04/05 09:54:54;;;;;;;23.83;14.52;;;13.80;47.40;;;;;;6256894;28;20132;-79
2021/04/05 09:58:01;;;;;;;28.27;18.38;;;13.80;47.20;;;;;;6263746;28;20132;-80
2021/04/05 10:01:08;;;;;;;41.65;28.13;;;13.90;46.60;;;;;;6262492;28;20072;-80
2021/04/05 10:04:11;;;;;;;35.25;18.30;;;14.00;46.50;;;;;;6270338;28;20247;-80
2021/04/05 10:07:14;;;;;;;67.93;45.83;;;14.20;45.90;;;;;;6261993;28;20052;-80
2021/04/05 10:10:17;;;;;;;32.58;18.95;;;14.40;46.10;;;;;;6260317;28;20065;-78
2021/04/05 10:13:21;;;;;;;49.85;24.92;;;14.60;45.60;;;;;;6269972;28;20136;-79
2021/04/05 10:16:24;;;;;;;41.05;28.00;;;14.70;45.40;;;;;;6268152;28;20100;-80
2021/04/05 10:19:28;;;;;;;35.85;21.70;;;14.70;45.30;;;;;;6251732;28;20136;-79
2021/04/05 10:22:37;;;;;;;23.15;14.77;;;14.70;45.70;;;;;;6260500;28;20108;-80
2021/04/05 10:25:39;;;;;;;62.05;42.97;;;14.50;46.30;;;;;;6263235;28;20125;-79
2021/04/05 10:28:43;;;;;;;48.65;34.45;;;14.30;47.40;;;;;;6261376;28;20045;-80
2021/04/05 10:31:49;;;;;;;70.60;43.65;;;14.20;47.90;;;;;;6249509;28;20076;-81
2021/04/05 10:34:53;;;;;;;81.30;48.22;;;14.10;55.30;;;;;;6261555;28;20140;-80
2021/04/05 10:37:55;;;;;;;70.07;39.50;;;13.80;49.90;;;;;;6269640;28;20399;-80
2021/04/05 10:40:57;;;;;;;57.25;38.63;;;13.60;50.90;;;;;;6276136;28;20099;-80
2021/04/05 10:44:04;;;;;;;46.13;22.02;;;13.40;51.70;;;;;;6270424;28;20108;-79
2021/04/05 10:47:12;;;;;;;31.85;16.05;;;13.30;52.20;;;;;;6273055;28;20143;-79
2021/04/05 10:50:14;;;;;;;44.07;13.63;;;13.40;52.40;;;;;;6261885;28;20049;-80
2021/04/05 10:53:18;;;;;;;30.00;15.63;;;13.50;52.10;;;;;;6265252;28;20111;-80
2021/04/05 10:56:20;;;;;;;23.85;12.35;;;13.50;52.00;;;;;;6260463;28;20076;-80
2021/04/05 10:59:28;;;;;;;18.60;12.95;;;13.50;52.80;;;;;;6252494;28;20646;-79
2021/04/05 11:02:38;;;;;;;29.88;13.05;;;13.40;52.40;;;;;;6253746;28;20056;-79
2021/04/05 11:05:41;;;;;;;30.63;12.73;;;13.30;52.90;;;;;;6268598;28;20073;-79
2021/04/05 11:08:47;;;;;;;21.48;11.77;;;13.10;53.10;;;;;;6260931;28;20561;-79
2021/04/05 11:11:52;;;;;;;16.98;11.73;;;12.90;53.40;;;;;;6269153;28;20052;-81
2021/04/05 11:14:53;;;;;;;22.83;13.15;;;12.90;53.40;;;;;;6259326;28;20400;-78
2021/04/05 11:17:57;;;;;;;31.98;10.85;;;12.90;53.70;;;;;;6251972;28;20120;-79
2021/04/05 11:20:59;;;;;;;25.90;11.75;;;12.80;53.70;;;;;;6267459;28;20051;-78
2021/04/05 11:24:02;;;;;;;21.73;11.43;;;12.80;54.00;;;;;;6253716;28;20400;-79
2021/04/05 11:27:10;;;;;;;31.13;12.32;;;12.70;53.30;;;;;;6265249;28;20781;-80
2021/04/05 11:30:23;;;;;;;15.30;10.30;;;12.70;54.10;;;;;;6263847;28;20045;-78
2021/04/05 11:33:27;;;;;;;20.95;12.18;;;12.60;54.00;;;;;;6251589;28;20124;-81
2021/04/05 11:36:35;;;;;;;18.25;11.98;;;12.50;53.80;;;;;;6274345;28;20465;-79
2021/04/05 11:39:38;;;;;;;;;;;12.40;54.50;;;;;;6269697;28;20128;-79
2021/04/05 11:42:43;;;;;;;17.20;10.05;;;12.30;70.40;;;;;;6259849;28;19980;-77
2021/04/05 11:45:47;;;;;;;21.77;11.60;;;12.00;55.30;;;;;;6267369;28;20052;-80
2021/04/05 11:49:02;;;;;;;24.33;12.82;;;11.90;55.80;;;;;;6244297;28;20073;-79
2021/04/05 11:52:08;;;;;;;19.38;12.35;;;12.00;58.30;;;;;;6261532;28;20101;-79
2021/04/05 11:55:14;;;;;;;18.15;12.45;;;11.90;64.50;;;;;;6263292;28;20080;-79
2021/04/05 11:58:25;;;;;;;18.10;11.02;;;11.70;56.50;;;;;;6269857;28;20411;-79
2021/04/05 12:01:31;;;;;;;27.92;18.10;;;11.60;56.40;;;;;;6274639;28;20136;-80
2021/04/05 12:04:39;;;;;;;21.42;14.65;;;11.50;57.20;;;;;;6271859;28;20137;-77
2021/04/05 12:07:44;;;;;;;;;;;11.50;56.60;;;;;;6279370;28;20052;-79
2021/04/05 12:10:50;;;;;;;54.22;34.50;;;11.40;56.90;;;;;;6292526;28;19929;-80
2021/04/05 12:13:56;;;;;;;36.35;23.20;;;11.40;58.40;;;;;;6274476;28;20049;-80
2021/04/05 12:17:00;;;;;;;22.73;15.10;;;11.40;58.00;;;;;;6279867;28;20049;-81
2021/04/05 12:20:04;;;;;;;18.77;11.63;;;11.30;57.50;;;;;;6277361;28;20063;-78
2021/04/05 12:23:08;;;;;;;15.90;9.65;;;11.30;57.40;;;;;;6272182;28;20061;-78
2021/04/05 12:26:11;;;;;;;16.42;11.40;;;11.30;57.20;;;;;;6286600;28;20059;-80
2021/04/05 12:29:13;;;;;;;17.85;10.20;;;11.20;57.30;;;;;;6285823;28;20045;-79
2021/04/05 12:32:17;;;;;;;16.50;12.25;;;11.20;57.60;;;;;;6271761;28;20629;-79
2021/04/05 12:35:21;;;;;;;17.77;9.60;;;11.20;58.00;;;;;;6267808;28;20063;-78
2021/04/05 12:38:28;;;;;;;18.33;8.80;;;11.40;64.30;;;;;;6273351;28;20073;-79
2021/04/05 12:41:34;;;;;;;18.48;10.00;;;11.30;57.80;;;;;;6279719;28;20045;-79
2021/04/05 12:44:37;;;;;;;14.98;9.90;;;11.20;57.60;;;;;;6275985;28;20099;-79
2021/04/05 12:47:43;;;;;;;18.02;9.05;;;11.20;57.70;;;;;;6275238;28;20052;-78
2021/04/05 12:50:46;;;;;;;12.50;6.90;;;;;;;;;;6273344;28;20048;-80
2021/04/05 12:53:49;;;;;;;12.70;7.75;;;11.30;60.50;;;;;;6267633;28;20048;-79
2021/04/05 12:56:52;;;;;;;19.73;9.00;;;11.10;57.90;;;;;;6256078;28;20498;-79
2021/04/05 12:59:55;;;;;;;13.30;7.90;;;11.20;62.60;;;;;;6269279;28;20113;-79
2021/04/05 13:03:00;;;;;;;18.17;8.68;;;11.00;58.10;;;;;;6265142;28;20099;-80
2021/04/05 13:06:07;;;;;;;16.52;8.35;;;10.90;58.20;;;;;;6264861;28;20101;-79
2021/04/05 13:09:13;;;;;;;15.50;7.82;;;10.90;58.60;;;;;;6263764;28;20125;-80
2021/04/05 13:12:18;;;;;;;18.98;9.18;;;10.90;58.80;;;;;;6280017;28;20044;-79
2021/04/05 13:15:22;;;;;;;20.30;11.07;;;10.90;59.10;;;;;;6245196;28;20111;-79
2021/04/05 13:18:27;;;;;;;18.05;11.88;;;10.80;61.40;;;;;;6260820;28;20506;-79
2021/04/05 13:21:36;;;;;;;20.38;11.25;;;10.60;64.30;;;;;;6263083;28;20494;-80
2021/04/05 13:24:45;;;;;;;15.07;10.05;;;10.50;67.00;;;;;;6256524;28;20918;-79
2021/04/05 13:27:49;;;;;;;19.73;11.77;;;10.20;68.60;;;;;;6263314;28;20064;-79
2021/04/05 13:30:52;;;;;;;13.93;11.23;;;10.00;70.20;;;;;;6272154;28;20112;-77
2021/04/05 13:33:55;;;;;;;18.77;11.27;;;9.90;72.50;;;;;;6268351;28;20073;-78
2021/04/05 13:37:02;;;;;;;23.45;11.48;;;9.70;73.40;;;;;;6269675;28;20083;-78
2021/04/05 13:40:05;;;;;;;16.00;11.75;;;9.60;74.30;;;;;;6270324;28;20080;-80
2021/04/05 13:43:11;;;;;;;20.45;11.15;;;9.50;75.10;;;;;;6263767;28;20107;-80
2021/04/05 13:46:14;;;;;;;20.23;12.50;;;9.40;76.00;;;;;;6270845;28;20045;-79
2021/04/05 13:49:23;;;;;;;28.55;13.98;;;9.50;80.10;;;;;;6266774;28;20077;-80
2021/04/05 13:52:27;;;;;;;22.83;13.15;;;9.20;78.60;;;;;;6255205;28;20183;-80
2021/04/05 13:55:32;;;;;;;18.00;12.57;;;9.10;79.90;;;;;;6268562;28;20065;-80
2021/04/05 13:58:37;;;;;;;27.02;14.80;;;8.90;81.30;;;;;;6263184;28;20096;-80
2021/04/05 14:01:42;;;;;;;18.17;12.48;;;8.70;82.90;;;;;;6258296;28;20084;-79
2021/04/05 14:04:45;;;;;;;26.20;14.70;;;8.60;84.60;;;;;;6272298;28;20061;-80
2021/04/05 14:07:48;;;;;;;31.35;14.77;;;8.50;85.60;;;;;;6267047;28;20049;-80
2021/04/05 14:10:54;;;;;;;21.50;14.30;;;8.40;86.80;;;;;;6271622;28;20065;-81
2021/04/05 14:13:57;;;;;;;21.05;13.90;;;8.40;87.80;;;;;;6274649;28;20108;-80
2021/04/05 14:17:02;;;;;;;21.20;13.70;;;8.50;90.50;;;;;;6276470;28;20141;-80
2021/04/05 14:20:09;;;;;;;19.27;13.50;;;8.40;90.80;;;;;;6263352;28;20045;-80
2021/04/05 14:23:16;;;;;;;22.67;14.73;;;8.30;90.90;;;;;;6271573;28;20097;-80
2021/04/05 14:26:19;;;;;;;18.25;13.32;;;8.50;94.70;;;;;;6263055;28;20581;-80
2021/04/05 14:29:29;;;;;;;17.40;14.15;;;8.30;93.70;;;;;;6269398;28;20077;-79
2021/04/05 14:32:34;;;;;;;24.88;14.30;;;8.30;93.60;;;;;;6255452;28;20105;-80
2021/04/05 14:35:40;;;;;;;14.68;10.60;;;8.10;91.60;;;;;;6265963;28;20480;-81
2021/04/05 14:38:43;;;;;;;18.00;10.68;;;8.10;91.70;;;;;;6257789;28;20132;-79
2021/04/05 14:41:52;;;;;;;19.92;10.88;;;8.00;92.00;;;;;;6260301;28;20124;-79
2021/04/05 14:44:58;;;;;;;19.58;12.38;;;8.10;92.40;;;;;;6260977;28;20072;-79
2021/04/05 14:48:02;;;;;;;14.15;11.57;;;8.10;92.80;;;;;;6267288;28;20534;-81
2021/04/05 14:51:05;;;;;;;23.48;12.05;;;8.10;93.20;;;;;;6268561;28;20127;-79
2021/04/05 14:54:09;;;;;;;14.30;11.30;;;8.20;93.40;;;;;;6270308;28;20052;-81
2021/04/05 14:57:12;;;;;;;15.23;11.18;;;8.20;93.40;;;;;;6277255;28;20048;-80
2021/04/05 15:00:17;;;;;;;6.05;4.18;;;8.20;93.30;;;;;;6277981;28;20064;-81
2021/04/05 15:03:25;;;;;;;7.07;4.45;;;8.00;92.50;;;;;;6254627;28;20076;-80
2021/04/05 15:06:29;;;;;;;4.45;3.03;;;7.90;92.40;;;;;;6276000;28;20163;-80
2021/04/05 15:09:37;;;;;;;2.55;2.30;;;7.40;93.00;;;;;;6263410;28;20069;-80
2021/04/05 15:12:41;;;;;;;3.53;2.03;;;6.80;92.20;;;;;;6266833;28;20049;-81
2021/04/05 15:15:43;;;;;;;1.40;1.30;;;6.00;92.50;;;;;;6265098;28;20077;-80
2021/04/05 15:18:47;;;;;;;4.93;1.55;;;5.30;91.20;;;;;;6278103;28;20072;-80
2021/04/05 15:21:54;;;;;;;1.67;1.58;;;4.60;91.50;;;;;;6270015;28;20064;-80
2021/04/05 15:24:58;;;;;;;1.90;1.75;;;4.30;94.60;;;;;;6273508;28;20041;-80
2021/04/05 15:28:01;;;;;;;3.65;1.70;;;4.20;97.70;;;;;;6279594;28;20041;-80
2021/04/05 15:31:03;;;;;;;2.00;1.80;;;4.20;99.20;;;;;;6261180;28;20079;-80
2021/04/05 15:34:10;;;;;;;4.13;2.08;;;4.20;99.90;;;;;;6263455;28;20067;-80
2021/04/05 15:37:14;;;;;;;2.23;1.43;;;4.10;99.90;;;;;;6259749;28;20138;-80
2021/04/05 15:40:17;;;;;;;2.53;1.60;;;4.00;99.90;;;;;;6266466;28;20132;-80
2021/04/05 15:43:23;;;;;;;4.72;2.30;;;4.00;99.90;;;;;;6276344;28;20519;-82
2021/04/05 15:46:31;;;;;;;3.83;1.73;;;4.00;99.90;;;;;;6273613;28;20049;-78
2021/04/05 15:49:34;;;;;;;4.72;4.05;;;4.00;99.90;;;;;;6285302;28;20065;-79
2021/04/05 15:52:40;;;;;;;3.13;2.23;;;3.90;99.90;;;;;;6273977;28;20045;-78
2021/04/05 15:55:49;;;;;;;2.93;2.43;;;3.90;99.90;;;;;;6278843;28;20467;-78
2021/04/05 15:58:54;;;;;;;2.80;2.30;;;3.90;99.90;;;;;;6280755;28;20480;-79
2021/04/05 16:01:58;;;;;;;2.60;2.40;;;3.90;99.90;;;;;;6279431;28;20076;-79
2021/04/05 16:05:04;;;;;;;5.13;3.40;;;3.90;99.90;;;;;;6267470;28;20499;-80
2021/04/05 16:08:09;;;;;;;3.17;2.90;;;3.80;99.90;;;;;;6272479;28;20057;-78